sensor_id;sensor_type;location;lat;lon;timestamp;temperature;humidity
41756;DHT22;27435;48.480;9.258;2024-02-14T00:01:34;3.90;99.00
41756;DHT22;27435;48.480;9.258;2024-02-14T00:04:02;4.00;99.00
41756;DHT22;27435;48.480;9.258;2024-02-14T00:06:28;4.20;99.00
41756;DHT22;27435;48.480;9.258;2024-02-14T00:08:54;4.20;99.00
41756;DHT22;27435;48.480;9.258;2024-02-14T00:11:19;4.20;99.00
41756;DHT22;27435;48.480;9.258;2024-02-14T00:13:45;4.20;99.00
41756;DHT22;27435;48.480;9.258;2024-02-14T00:16:10;4.10;99.00
41756;DHT22;27435;48.480;9.258;2024-02-14T00:18:36;4.20;99.00
41756;DHT22;27435;48.480;9.258;2024-02-14T00:21:02;4.10;99.00
41756;DHT22;27435;48.480;9.258;2024-02-14T00:23:28;4.10;99.00
41756;DHT22;27435;48.480;9.258;2024-02-14T00:25:53;4.10;99.00
41756;DHT22;27435;48.480;9.258;2024-02-14T00:28:19;4.20;99.00
41756;DHT22;27435;48.480;9.258;2024-02-14T00:30:44;4.20;99.00
41756;DHT22;27435;48.480;9.258;2024-02-14T00:33:11;4.40;99.00
41756;DHT22;27435;48.480;9.258;2024-02-14T00:35:36;4.40;99.00
41756;DHT22;27435;48.480;9.258;2024-02-14T00:38:02;4.50;99.00
41756;DHT22;27435;48.480;9.258;2024-02-14T00:40:28;4.50;99.00
41756;DHT22;27435;48.480;9.258;2024-02-14T00:42:53;4.60;99.00
41756;DHT22;27435;48.480;9.258;2024-02-14T00:45:19;4.60;99.00
41756;DHT22;27435;48.480;9.258;2024-02-14T00:47:44;4.60;99.00
41756;DHT22;27435;48.480;9.258;2024-02-14T00:50:10;4.70;99.00
41756;DHT22;27435;48.480;9.258;2024-02-14T00:52:39;4.70;99.00
41756;DHT22;27435;48.480;9.258;2024-02-14T00:55:05;4.70;99.00
41756;DHT22;27435;48.480;9.258;2024-02-14T00:57:31;4.70;99.00
41756;DHT22;27435;48.480;9.258;2024-02-14T00:59:57;4.60;99.00
41756;DHT22;27435;48.480;9.258;2024-02-14T01:02:23;4.50;99.00
41756;DHT22;27435;48.480;9.258;2024-02-14T01:04:49;4.50;99.00
41756;DHT22;27435;48.480;9.258;2024-02-14T01:07:14;4.40;99.00
41756;DHT22;27435;48.480;9.258;2024-02-14T01:09:40;4.40;99.00
41756;DHT22;27435;48.480;9.258;2024-02-14T01:12:06;4.40;99.00
41756;DHT22;27435;48.480;9.258;2024-02-14T01:14:32;4.40;99.00
41756;DHT22;27435;48.480;9.258;2024-02-14T01:16:57;4.50;99.00
41756;DHT22;27435;48.480;9.258;2024-02-14T01:19:23;4.60;99.00
41756;DHT22;27435;48.480;9.258;2024-02-14T01:21:54;4.70;99.00
41756;DHT22;27435;48.480;9.258;2024-02-14T01:24:21;4.70;99.00
41756;DHT22;27435;48.480;9.258;2024-02-14T01:26:47;4.80;99.00
41756;DHT22;27435;48.480;9.258;2024-02-14T01:29:19;4.90;99.00
41756;DHT22;27435;48.480;9.258;2024-02-14T01:31:45;5.10;99.00
41756;DHT22;27435;48.480;9.258;2024-02-14T01:34:11;5.30;99.00
41756;DHT22;27435;48.480;9.258;2024-02-14T01:36:36;5.40;99.00
41756;DHT22;27435;48.480;9.258;2024-02-14T01:39:04;5.60;99.00
41756;DHT22;27435;48.480;9.258;2024-02-14T01:41:44;5.70;99.00
41756;DHT22;27435;48.480;9.258;2024-02-14T01:44:11;5.70;99.00
41756;DHT22;27435;48.480;9.258;2024-02-14T01:46:37;5.80;99.00
41756;DHT22;27435;48.480;9.258;2024-02-14T01:49:02;5.80;99.00
41756;DHT22;27435;48.480;9.258;2024-02-14T01:51:30;5.90;99.00
41756;DHT22;27435;48.480;9.258;2024-02-14T01:53:57;6.10;99.00
41756;DHT22;27435;48.480;9.258;2024-02-14T01:56:24;6.00;99.00
41756;DHT22;27435;48.480;9.258;2024-02-14T01:58:51;6.10;99.00
41756;DHT22;27435;48.480;9.258;2024-02-14T02:01:18;6.20;99.00
41756;DHT22;27435;48.480;9.258;2024-02-14T02:03:43;6.10;99.00
41756;DHT22;27435;48.480;9.258;2024-02-14T02:06:09;6.20;99.00
41756;DHT22;27435;48.480;9.258;2024-02-14T02:08:35;6.10;99.00
41756;DHT22;27435;48.480;9.258;2024-02-14T02:11:01;6.20;99.00
41756;DHT22;27435;48.480;9.258;2024-02-14T02:13:26;6.10;99.00
41756;DHT22;27435;48.480;9.258;2024-02-14T02:15:53;6.10;99.00
41756;DHT22;27435;48.480;9.258;2024-02-14T02:18:19;6.10;99.00
41756;DHT22;27435;48.480;9.258;2024-02-14T02:20:45;6.10;99.00
41756;DHT22;27435;48.480;9.258;2024-02-14T02:23:14;6.10;99.00
41756;DHT22;27435;48.480;9.258;2024-02-14T02:25:42;6.20;99.00
41756;DHT22;27435;48.480;9.258;2024-02-14T02:28:08;6.20;99.00
41756;DHT22;27435;48.480;9.258;2024-02-14T02:30:35;6.00;99.00
41756;DHT22;27435;48.480;9.258;2024-02-14T02:33:01;6.00;99.00
41756;DHT22;27435;48.480;9.258;2024-02-14T02:35:28;6.20;99.00
41756;DHT22;27435;48.480;9.258;2024-02-14T02:37:54;6.10;99.00
41756;DHT22;27435;48.480;9.258;2024-02-14T02:40:19;6.00;99.00
41756;DHT22;27435;48.480;9.258;2024-02-14T02:42:47;5.90;99.00
41756;DHT22;27435;48.480;9.258;2024-02-14T02:45:13;5.80;99.00
41756;DHT22;27435;48.480;9.258;2024-02-14T02:47:38;5.80;99.00
41756;DHT22;27435;48.480;9.258;2024-02-14T02:50:05;5.80;99.00
41756;DHT22;27435;48.480;9.258;2024-02-14T02:52:31;5.70;99.00
41756;DHT22;27435;48.480;9.258;2024-02-14T02:54:57;5.70;99.00
41756;DHT22;27435;48.480;9.258;2024-02-14T02:57:23;5.70;99.00
41756;DHT22;27435;48.480;9.258;2024-02-14T02:59:52;5.70;99.00
41756;DHT22;27435;48.480;9.258;2024-02-14T03:02:18;5.70;99.00
41756;DHT22;27435;48.480;9.258;2024-02-14T03:04:44;5.70;99.00
41756;DHT22;27435;48.480;9.258;2024-02-14T03:07:10;5.80;99.00
41756;DHT22;27435;48.480;9.258;2024-02-14T03:09:36;5.80;99.00
41756;DHT22;27435;48.480;9.258;2024-02-14T03:12:05;5.70;99.00
41756;DHT22;27435;48.480;9.258;2024-02-14T03:14:31;5.80;99.00
41756;DHT22;27435;48.480;9.258;2024-02-14T03:17:02;5.80;99.00
41756;DHT22;27435;48.480;9.258;2024-02-14T03:19:29;5.90;99.00
41756;DHT22;27435;48.480;9.258;2024-02-14T03:21:55;5.90;99.00
41756;DHT22;27435;48.480;9.258;2024-02-14T03:24:22;5.80;99.00
41756;DHT22;27435;48.480;9.258;2024-02-14T03:26:48;5.80;99.00
41756;DHT22;27435;48.480;9.258;2024-02-14T03:29:17;5.80;99.00
41756;DHT22;27435;48.480;9.258;2024-02-14T03:31:42;5.80;99.00
41756;DHT22;27435;48.480;9.258;2024-02-14T03:34:09;5.80;99.00
41756;DHT22;27435;48.480;9.258;2024-02-14T03:36:37;5.90;99.00
41756;DHT22;27435;48.480;9.258;2024-02-14T03:39:04;5.90;99.00
41756;DHT22;27435;48.480;9.258;2024-02-14T03:41:31;5.90;99.00
41756;DHT22;27435;48.480;9.258;2024-02-14T03:43:56;6.00;99.00
41756;DHT22;27435;48.480;9.258;2024-02-14T03:46:26;5.90;99.00
41756;DHT22;27435;48.480;9.258;2024-02-14T03:48:53;6.00;99.00
41756;DHT22;27435;48.480;9.258;2024-02-14T03:51:19;5.90;99.00
41756;DHT22;27435;48.480;9.258;2024-02-14T03:53:45;5.90;99.00
41756;DHT22;27435;48.480;9.258;2024-02-14T03:56:11;5.90;99.00
41756;DHT22;27435;48.480;9.258;2024-02-14T03:58:38;6.00;99.00
41756;DHT22;27435;48.480;9.258;2024-02-14T04:01:04;5.90;99.00
41756;DHT22;27435;48.480;9.258;2024-02-14T04:03:30;5.90;99.00
41756;DHT22;27435;48.480;9.258;2024-02-14T04:05:56;6.00;99.00
41756;DHT22;27435;48.480;9.258;2024-02-14T04:08:22;6.00;99.00
41756;DHT22;27435;48.480;9.258;2024-02-14T04:10:48;6.10;99.00
41756;DHT22;27435;48.480;9.258;2024-02-14T04:13:19;6.10;99.00
41756;DHT22;27435;48.480;9.258;2024-02-14T04:15:46;6.10;99.00
41756;DHT22;27435;48.480;9.258;2024-02-14T04:18:12;6.10;99.00
41756;DHT22;27435;48.480;9.258;2024-02-14T04:20:38;6.10;99.00
41756;DHT22;27435;48.480;9.258;2024-02-14T04:23:04;6.20;99.00
41756;DHT22;27435;48.480;9.258;2024-02-14T04:25:33;6.20;99.00
41756;DHT22;27435;48.480;9.258;2024-02-14T04:27:59;6.20;99.00
41756;DHT22;27435;48.480;9.258;2024-02-14T04:30:25;6.30;98.70
41756;DHT22;27435;48.480;9.258;2024-02-14T04:32:51;6.20;98.40
41756;DHT22;27435;48.480;9.258;2024-02-14T04:35:20;6.10;97.90
41756;DHT22;27435;48.480;9.258;2024-02-14T04:37:46;6.20;97.20
41756;DHT22;27435;48.480;9.258;2024-02-14T04:40:13;6.10;97.80
41756;DHT22;27435;48.480;9.258;2024-02-14T04:42:40;5.90;98.30
41756;DHT22;27435;48.480;9.258;2024-02-14T04:45:06;5.90;98.70
41756;DHT22;27435;48.480;9.258;2024-02-14T04:47:32;5.80;99.00
41756;DHT22;27435;48.480;9.258;2024-02-14T04:49:58;5.70;98.60
41756;DHT22;27435;48.480;9.258;2024-02-14T04:52:25;5.70;98.30
41756;DHT22;27435;48.480;9.258;2024-02-14T04:54:51;5.60;98.20
41756;DHT22;27435;48.480;9.258;2024-02-14T04:57:16;5.50;98.80
41756;DHT22;27435;48.480;9.258;2024-02-14T04:59:44;5.50;98.50
41756;DHT22;27435;48.480;9.258;2024-02-14T05:02:09;5.40;99.00
41756;DHT22;27435;48.480;9.258;2024-02-14T05:04:36;5.40;99.00
41756;DHT22;27435;48.480;9.258;2024-02-14T05:07:03;5.40;99.00
41756;DHT22;27435;48.480;9.258;2024-02-14T05:09:29;5.40;99.00
41756;DHT22;27435;48.480;9.258;2024-02-14T05:11:55;5.50;99.00
41756;DHT22;27435;48.480;9.258;2024-02-14T05:14:20;5.60;98.90
41756;DHT22;27435;48.480;9.258;2024-02-14T05:16:46;5.80;98.50
41756;DHT22;27435;48.480;9.258;2024-02-14T05:19:12;5.80;98.20
41756;DHT22;27435;48.480;9.258;2024-02-14T05:21:38;5.70;97.50
41756;DHT22;27435;48.480;9.258;2024-02-14T05:24:04;5.90;97.50
41756;DHT22;27435;48.480;9.258;2024-02-14T05:26:30;5.90;98.60
41756;DHT22;27435;48.480;9.258;2024-02-14T05:28:55;5.80;99.00
41756;DHT22;27435;48.480;9.258;2024-02-14T05:31:21;5.90;99.00
41756;DHT22;27435;48.480;9.258;2024-02-14T05:33:47;5.90;99.00
41756;DHT22;27435;48.480;9.258;2024-02-14T05:36:13;6.00;99.00
41756;DHT22;27435;48.480;9.258;2024-02-14T05:38:38;6.00;99.00
41756;DHT22;27435;48.480;9.258;2024-02-14T05:41:04;5.90;99.00
41756;DHT22;27435;48.480;9.258;2024-02-14T05:43:30;5.80;99.00
41756;DHT22;27435;48.480;9.258;2024-02-14T05:45:55;5.70;99.00
41756;DHT22;27435;48.480;9.258;2024-02-14T05:48:21;5.50;99.00
41756;DHT22;27435;48.480;9.258;2024-02-14T05:50:46;5.40;99.00
41756;DHT22;27435;48.480;9.258;2024-02-14T05:53:12;5.40;99.00
41756;DHT22;27435;48.480;9.258;2024-02-14T05:55:38;5.50;99.00
41756;DHT22;27435;48.480;9.258;2024-02-14T05:58:04;5.50;99.00
41756;DHT22;27435;48.480;9.258;2024-02-14T06:00:29;5.50;99.00
41756;DHT22;27435;48.480;9.258;2024-02-14T06:02:56;5.50;99.00
41756;DHT22;27435;48.480;9.258;2024-02-14T06:05:21;5.60;99.00
41756;DHT22;27435;48.480;9.258;2024-02-14T06:07:47;5.70;99.00
41756;DHT22;27435;48.480;9.258;2024-02-14T06:10:13;5.80;99.00
41756;DHT22;27435;48.480;9.258;2024-02-14T06:12:39;5.80;99.00
41756;DHT22;27435;48.480;9.258;2024-02-14T06:15:08;5.90;98.00
41756;DHT22;27435;48.480;9.258;2024-02-14T06:17:35;6.00;97.20
41756;DHT22;27435;48.480;9.258;2024-02-14T06:20:00;6.20;97.30
41756;DHT22;27435;48.480;9.258;2024-02-14T06:22:31;6.30;97.60
41756;DHT22;27435;48.480;9.258;2024-02-14T06:24:57;6.30;98.00
41756;DHT22;27435;48.480;9.258;2024-02-14T06:27:23;6.40;97.70
41756;DHT22;27435;48.480;9.258;2024-02-14T06:29:49;6.50;97.70
41756;DHT22;27435;48.480;9.258;2024-02-14T06:32:15;6.50;97.70
41756;DHT22;27435;48.480;9.258;2024-02-14T06:34:40;6.60;97.40
41756;DHT22;27435;48.480;9.258;2024-02-14T06:37:06;6.70;97.40
41756;DHT22;27435;48.480;9.258;2024-02-14T06:39:32;6.70;98.00
41756;DHT22;27435;48.480;9.258;2024-02-14T06:41:57;6.80;97.60
41756;DHT22;27435;48.480;9.258;2024-02-14T06:44:24;6.80;97.70
41756;DHT22;27435;48.480;9.258;2024-02-14T06:46:49;6.90;97.40
41756;DHT22;27435;48.480;9.258;2024-02-14T06:49:16;6.90;97.60
41756;DHT22;27435;48.480;9.258;2024-02-14T06:51:42;7.00;97.60
41756;DHT22;27435;48.480;9.258;2024-02-14T06:54:08;6.90;97.40
41756;DHT22;27435;48.480;9.258;2024-02-14T06:56:34;7.00;97.40
41756;DHT22;27435;48.480;9.258;2024-02-14T06:59:00;7.00;97.50
41756;DHT22;27435;48.480;9.258;2024-02-14T07:01:27;7.00;97.80
41756;DHT22;27435;48.480;9.258;2024-02-14T07:03:53;7.10;98.20
41756;DHT22;27435;48.480;9.258;2024-02-14T07:06:19;7.20;97.40
41756;DHT22;27435;48.480;9.258;2024-02-14T07:08:45;7.20;97.80
41756;DHT22;27435;48.480;9.258;2024-02-14T07:11:11;7.20;97.80
41756;DHT22;27435;48.480;9.258;2024-02-14T07:13:37;7.10;97.20
41756;DHT22;27435;48.480;9.258;2024-02-14T07:16:03;7.00;97.50
41756;DHT22;27435;48.480;9.258;2024-02-14T07:18:28;7.00;97.70
41756;DHT22;27435;48.480;9.258;2024-02-14T07:20:54;7.00;97.60
41756;DHT22;27435;48.480;9.258;2024-02-14T07:23:20;7.10;97.80
41756;DHT22;27435;48.480;9.258;2024-02-14T07:25:46;7.10;97.80
41756;DHT22;27435;48.480;9.258;2024-02-14T07:28:11;7.30;97.10
41756;DHT22;27435;48.480;9.258;2024-02-14T07:30:37;7.40;96.80
41756;DHT22;27435;48.480;9.258;2024-02-14T07:33:03;7.40;97.00
41756;DHT22;27435;48.480;9.258;2024-02-14T07:35:28;7.40;96.80
41756;DHT22;27435;48.480;9.258;2024-02-14T07:37:55;7.40;96.70
41756;DHT22;27435;48.480;9.258;2024-02-14T07:40:21;7.40;97.00
41756;DHT22;27435;48.480;9.258;2024-02-14T07:42:47;7.50;97.00
41756;DHT22;27435;48.480;9.258;2024-02-14T07:45:13;7.60;96.70
41756;DHT22;27435;48.480;9.258;2024-02-14T07:47:39;7.80;96.60
41756;DHT22;27435;48.480;9.258;2024-02-14T07:50:06;7.90;96.10
41756;DHT22;27435;48.480;9.258;2024-02-14T07:52:32;7.90;95.60
41756;DHT22;27435;48.480;9.258;2024-02-14T07:54:58;7.90;96.10
41756;DHT22;27435;48.480;9.258;2024-02-14T07:57:24;8.00;96.00
41756;DHT22;27435;48.480;9.258;2024-02-14T07:59:50;8.10;95.70
41756;DHT22;27435;48.480;9.258;2024-02-14T08:02:17;8.30;95.40
41756;DHT22;27435;48.480;9.258;2024-02-14T08:04:42;8.40;94.90
41756;DHT22;27435;48.480;9.258;2024-02-14T08:07:09;8.40;94.60
41756;DHT22;27435;48.480;9.258;2024-02-14T08:09:35;8.40;94.40
41756;DHT22;27435;48.480;9.258;2024-02-14T08:12:01;8.50;94.30
41756;DHT22;27435;48.480;9.258;2024-02-14T08:14:26;8.60;94.20
41756;DHT22;27435;48.480;9.258;2024-02-14T08:16:52;8.70;94.30
41756;DHT22;27435;48.480;9.258;2024-02-14T08:19:18;8.90;94.10
41756;DHT22;27435;48.480;9.258;2024-02-14T08:21:45;9.10;93.60
41756;DHT22;27435;48.480;9.258;2024-02-14T08:24:10;9.30;92.80
41756;DHT22;27435;48.480;9.258;2024-02-14T08:26:36;9.50;92.80
41756;DHT22;27435;48.480;9.258;2024-02-14T08:29:02;9.60;92.80
41756;DHT22;27435;48.480;9.258;2024-02-14T08:31:29;9.80;92.30
41756;DHT22;27435;48.480;9.258;2024-02-14T08:33:54;10.00;92.30
41756;DHT22;27435;48.480;9.258;2024-02-14T08:36:20;10.20;91.60
41756;DHT22;27435;48.480;9.258;2024-02-14T08:38:48;10.20;91.50
41756;DHT22;27435;48.480;9.258;2024-02-14T08:41:17;10.40;91.10
41756;DHT22;27435;48.480;9.258;2024-02-14T08:43:44;10.60;90.90
41756;DHT22;27435;48.480;9.258;2024-02-14T08:46:10;10.70;90.30
41756;DHT22;27435;48.480;9.258;2024-02-14T08:48:37;10.90;90.40
41756;DHT22;27435;48.480;9.258;2024-02-14T08:51:07;11.00;90.20
41756;DHT22;27435;48.480;9.258;2024-02-14T08:53:34;11.10;89.00
41756;DHT22;27435;48.480;9.258;2024-02-14T08:56:00;11.40;87.60
41756;DHT22;27435;48.480;9.258;2024-02-14T08:58:26;11.50;87.50
41756;DHT22;27435;48.480;9.258;2024-02-14T09:00:52;11.40;86.90
41756;DHT22;27435;48.480;9.258;2024-02-14T09:03:19;11.50;87.70
41756;DHT22;27435;48.480;9.258;2024-02-14T09:05:45;11.70;88.00
41756;DHT22;27435;48.480;9.258;2024-02-14T09:08:12;11.40;88.20
41756;DHT22;27435;48.480;9.258;2024-02-14T09:10:38;11.50;88.90
41756;DHT22;27435;48.480;9.258;2024-02-14T09:13:04;11.00;90.30
41756;DHT22;27435;48.480;9.258;2024-02-14T09:15:30;11.10;89.90
41756;DHT22;27435;48.480;9.258;2024-02-14T09:17:56;11.10;89.40
41756;DHT22;27435;48.480;9.258;2024-02-14T09:20:22;11.40;89.10
41756;DHT22;27435;48.480;9.258;2024-02-14T09:22:48;11.60;88.60
41756;DHT22;27435;48.480;9.258;2024-02-14T09:25:13;11.80;87.20
41756;DHT22;27435;48.480;9.258;2024-02-14T09:27:39;11.80;87.70
41756;DHT22;27435;48.480;9.258;2024-02-14T09:30:07;11.90;87.20
41756;DHT22;27435;48.480;9.258;2024-02-14T09:32:33;12.00;86.60
41756;DHT22;27435;48.480;9.258;2024-02-14T09:34:59;11.80;87.30
41756;DHT22;27435;48.480;9.258;2024-02-14T09:37:26;11.50;88.40
41756;DHT22;27435;48.480;9.258;2024-02-14T09:39:51;11.50;88.40
41756;DHT22;27435;48.480;9.258;2024-02-14T09:42:22;11.50;88.40
41756;DHT22;27435;48.480;9.258;2024-02-14T09:44:52;11.40;89.10
41756;DHT22;27435;48.480;9.258;2024-02-14T09:47:23;11.70;88.90
41756;DHT22;27435;48.480;9.258;2024-02-14T09:49:50;11.90;88.10
41756;DHT22;27435;48.480;9.258;2024-02-14T09:52:17;11.90;87.60
41756;DHT22;27435;48.480;9.258;2024-02-14T09:54:45;12.00;87.90
41756;DHT22;27435;48.480;9.258;2024-02-14T09:57:11;12.30;87.60
41756;DHT22;27435;48.480;9.258;2024-02-14T09:59:39;12.20;87.40
41756;DHT22;27435;48.480;9.258;2024-02-14T10:02:04;12.60;87.00
41756;DHT22;27435;48.480;9.258;2024-02-14T10:04:30;12.80;85.70
41756;DHT22;27435;48.480;9.258;2024-02-14T10:06:56;12.90;85.50
41756;DHT22;27435;48.480;9.258;2024-02-14T10:09:22;12.90;85.30
41756;DHT22;27435;48.480;9.258;2024-02-14T10:11:48;12.50;86.40
41756;DHT22;27435;48.480;9.258;2024-02-14T10:14:14;12.60;87.20
41756;DHT22;27435;48.480;9.258;2024-02-14T10:16:40;12.80;86.90
41756;DHT22;27435;48.480;9.258;2024-02-14T10:19:17;12.80;87.10
41756;DHT22;27435;48.480;9.258;2024-02-14T10:21:44;13.00;87.10
41756;DHT22;27435;48.480;9.258;2024-02-14T10:24:20;12.90;87.00
41756;DHT22;27435;48.480;9.258;2024-02-14T10:26:45;12.90;87.10
41756;DHT22;27435;48.480;9.258;2024-02-14T10:29:11;12.80;87.90
41756;DHT22;27435;48.480;9.258;2024-02-14T10:31:37;12.70;88.50
41756;DHT22;27435;48.480;9.258;2024-02-14T10:34:03;12.50;88.90
41756;DHT22;27435;48.480;9.258;2024-02-14T10:36:31;12.50;89.60
41756;DHT22;27435;48.480;9.258;2024-02-14T10:38:59;12.70;89.50
41756;DHT22;27435;48.480;9.258;2024-02-14T10:41:27;12.40;90.70
41756;DHT22;27435;48.480;9.258;2024-02-14T10:43:57;12.50;91.60
41756;DHT22;27435;48.480;9.258;2024-02-14T10:46:23;12.60;91.40
41756;DHT22;27435;48.480;9.258;2024-02-14T10:48:55;12.90;90.60
41756;DHT22;27435;48.480;9.258;2024-02-14T10:51:25;12.90;90.60
41756;DHT22;27435;48.480;9.258;2024-02-14T10:53:52;12.90;90.50
41756;DHT22;27435;48.480;9.258;2024-02-14T10:56:18;12.80;91.60
41756;DHT22;27435;48.480;9.258;2024-02-14T10:58:48;12.90;91.00
41756;DHT22;27435;48.480;9.258;2024-02-14T11:01:14;13.00;91.30
41756;DHT22;27435;48.480;9.258;2024-02-14T11:03:44;13.00;91.10
41756;DHT22;27435;48.480;9.258;2024-02-14T11:06:15;13.00;90.70
41756;DHT22;27435;48.480;9.258;2024-02-14T11:08:42;13.20;91.40
41756;DHT22;27435;48.480;9.258;2024-02-14T11:11:07;13.60;90.20
41756;DHT22;27435;48.480;9.258;2024-02-14T11:13:35;13.80;88.70
41756;DHT22;27435;48.480;9.258;2024-02-14T11:16:01;13.60;89.90
41756;DHT22;27435;48.480;9.258;2024-02-14T11:18:29;13.60;90.20
41756;DHT22;27435;48.480;9.258;2024-02-14T11:21:04;13.90;89.50
41756;DHT22;27435;48.480;9.258;2024-02-14T11:23:40;13.90;89.20
41756;DHT22;27435;48.480;9.258;2024-02-14T11:26:15;13.90;88.90
41756;DHT22;27435;48.480;9.258;2024-02-14T11:28:41;13.90;88.90
41756;DHT22;27435;48.480;9.258;2024-02-14T11:31:07;14.00;88.80
41756;DHT22;27435;48.480;9.258;2024-02-14T11:33:35;13.90;89.40
41756;DHT22;27435;48.480;9.258;2024-02-14T11:36:08;13.90;88.90
41756;DHT22;27435;48.480;9.258;2024-02-14T11:38:36;13.60;89.40
41756;DHT22;27435;48.480;9.258;2024-02-14T11:41:02;13.40;90.30
41756;DHT22;27435;48.480;9.258;2024-02-14T11:43:29;13.80;89.90
41756;DHT22;27435;48.480;9.258;2024-02-14T11:45:54;13.90;88.80
41756;DHT22;27435;48.480;9.258;2024-02-14T11:48:21;14.00;88.70
41756;DHT22;27435;48.480;9.258;2024-02-14T11:50:49;14.10;87.90
41756;DHT22;27435;48.480;9.258;2024-02-14T11:53:17;13.80;88.50
41756;DHT22;27435;48.480;9.258;2024-02-14T11:55:44;13.70;89.60
41756;DHT22;27435;48.480;9.258;2024-02-14T11:58:13;13.80;89.50
41756;DHT22;27435;48.480;9.258;2024-02-14T12:00:43;13.80;89.50
41756;DHT22;27435;48.480;9.258;2024-02-14T12:03:22;13.90;89.70
41756;DHT22;27435;48.480;9.258;2024-02-14T12:05:50;13.70;89.90
41756;DHT22;27435;48.480;9.258;2024-02-14T12:08:16;13.40;91.30
41756;DHT22;27435;48.480;9.258;2024-02-14T12:10:43;13.20;92.50
41756;DHT22;27435;48.480;9.258;2024-02-14T12:13:12;13.20;92.70
41756;DHT22;27435;48.480;9.258;2024-02-14T12:15:44;13.30;92.50
41756;DHT22;27435;48.480;9.258;2024-02-14T12:18:11;13.00;93.30
41756;DHT22;27435;48.480;9.258;2024-02-14T12:20:40;13.00;94.00
41756;DHT22;27435;48.480;9.258;2024-02-14T12:23:06;13.10;93.90
41756;DHT22;27435;48.480;9.258;2024-02-14T12:25:33;13.00;94.40
41756;DHT22;27435;48.480;9.258;2024-02-14T12:27:59;12.90;94.80
41756;DHT22;27435;48.480;9.258;2024-02-14T12:30:51;12.90;95.00
41756;DHT22;27435;48.480;9.258;2024-02-14T12:33:26;13.00;95.40
41756;DHT22;27435;48.480;9.258;2024-02-14T12:35:54;13.20;94.80
41756;DHT22;27435;48.480;9.258;2024-02-14T12:38:22;13.20;94.60
41756;DHT22;27435;48.480;9.258;2024-02-14T12:40:48;13.40;93.80
41756;DHT22;27435;48.480;9.258;2024-02-14T12:43:15;13.40;93.60
41756;DHT22;27435;48.480;9.258;2024-02-14T12:45:43;13.60;93.20
41756;DHT22;27435;48.480;9.258;2024-02-14T12:48:10;13.70;92.60
41756;DHT22;27435;48.480;9.258;2024-02-14T12:50:37;13.60;93.00
41756;DHT22;27435;48.480;9.258;2024-02-14T12:53:04;13.60;93.40
41756;DHT22;27435;48.480;9.258;2024-02-14T12:55:30;13.80;92.50
41756;DHT22;27435;48.480;9.258;2024-02-14T12:57:56;13.80;91.90
41756;DHT22;27435;48.480;9.258;2024-02-14T13:00:23;13.70;92.50
41756;DHT22;27435;48.480;9.258;2024-02-14T13:02:49;13.60;92.70
41756;DHT22;27435;48.480;9.258;2024-02-14T13:05:14;13.70;92.80
41756;DHT22;27435;48.480;9.258;2024-02-14T13:07:41;13.80;92.10
41756;DHT22;27435;48.480;9.258;2024-02-14T13:10:07;13.80;92.30
41756;DHT22;27435;48.480;9.258;2024-02-14T13:12:37;13.60;92.30
41756;DHT22;27435;48.480;9.258;2024-02-14T13:15:05;13.70;92.10
41756;DHT22;27435;48.480;9.258;2024-02-14T13:17:31;14.00;91.50
41756;DHT22;27435;48.480;9.258;2024-02-14T13:19:56;14.30;90.60
41756;DHT22;27435;48.480;9.258;2024-02-14T13:22:22;14.40;90.00
41756;DHT22;27435;48.480;9.258;2024-02-14T13:24:48;14.40;89.50
41756;DHT22;27435;48.480;9.258;2024-02-14T13:27:14;14.50;89.60
41756;DHT22;27435;48.480;9.258;2024-02-14T13:29:40;14.70;88.90
41756;DHT22;27435;48.480;9.258;2024-02-14T13:32:06;14.70;88.50
41756;DHT22;27435;48.480;9.258;2024-02-14T13:34:33;14.60;88.90
41756;DHT22;27435;48.480;9.258;2024-02-14T13:36:59;14.50;89.40
41756;DHT22;27435;48.480;9.258;2024-02-14T13:39:25;14.30;90.00
41756;DHT22;27435;48.480;9.258;2024-02-14T13:41:51;14.40;89.20
41756;DHT22;27435;48.480;9.258;2024-02-14T13:44:17;14.40;89.50
41756;DHT22;27435;48.480;9.258;2024-02-14T13:46:44;14.30;89.70
41756;DHT22;27435;48.480;9.258;2024-02-14T13:49:11;14.10;90.40
41756;DHT22;27435;48.480;9.258;2024-02-14T13:51:38;13.90;91.20
41756;DHT22;27435;48.480;9.258;2024-02-14T13:54:04;14.10;91.20
41756;DHT22;27435;48.480;9.258;2024-02-14T13:56:30;14.20;90.70
41756;DHT22;27435;48.480;9.258;2024-02-14T13:58:55;14.20;90.80
41756;DHT22;27435;48.480;9.258;2024-02-14T14:01:21;14.40;90.30
41756;DHT22;27435;48.480;9.258;2024-02-14T14:03:47;14.50;90.20
41756;DHT22;27435;48.480;9.258;2024-02-14T14:06:14;14.40;90.20
41756;DHT22;27435;48.480;9.258;2024-02-14T14:08:40;14.10;91.40
41756;DHT22;27435;48.480;9.258;2024-02-14T14:11:05;14.00;91.80
41756;DHT22;27435;48.480;9.258;2024-02-14T14:13:31;13.80;92.70
41756;DHT22;27435;48.480;9.258;2024-02-14T14:15:59;14.00;92.40
41756;DHT22;27435;48.480;9.258;2024-02-14T14:18:25;13.90;92.00
41756;DHT22;27435;48.480;9.258;2024-02-14T14:20:51;13.90;92.30
41756;DHT22;27435;48.480;9.258;2024-02-14T14:23:18;13.90;92.30
41756;DHT22;27435;48.480;9.258;2024-02-14T14:25:44;13.70;93.30
41756;DHT22;27435;48.480;9.258;2024-02-14T14:28:10;13.80;92.90
41756;DHT22;27435;48.480;9.258;2024-02-14T14:30:36;13.70;93.20
41756;DHT22;27435;48.480;9.258;2024-02-14T14:33:04;13.80;93.10
41756;DHT22;27435;48.480;9.258;2024-02-14T14:35:30;13.80;92.90
41756;DHT22;27435;48.480;9.258;2024-02-14T14:38:05;13.70;93.30
41756;DHT22;27435;48.480;9.258;2024-02-14T14:40:30;13.90;92.80
41756;DHT22;27435;48.480;9.258;2024-02-14T14:42:56;13.90;92.70
41756;DHT22;27435;48.480;9.258;2024-02-14T14:45:22;13.80;93.40
41756;DHT22;27435;48.480;9.258;2024-02-14T14:47:48;14.10;92.80
41756;DHT22;27435;48.480;9.258;2024-02-14T14:50:14;14.20;92.10
41756;DHT22;27435;48.480;9.258;2024-02-14T14:52:41;14.20;91.80
41756;DHT22;27435;48.480;9.258;2024-02-14T14:55:09;14.40;91.00
41756;DHT22;27435;48.480;9.258;2024-02-14T14:57:35;14.40;91.20
41756;DHT22;27435;48.480;9.258;2024-02-14T15:00:10;14.60;90.80
41756;DHT22;27435;48.480;9.258;2024-02-14T15:02:40;14.80;89.20
41756;DHT22;27435;48.480;9.258;2024-02-14T15:05:11;14.70;89.30
41756;DHT22;27435;48.480;9.258;2024-02-14T15:07:38;14.60;90.10
41756;DHT22;27435;48.480;9.258;2024-02-14T15:10:05;14.30;90.90
41756;DHT22;27435;48.480;9.258;2024-02-14T15:12:31;14.30;91.30
41756;DHT22;27435;48.480;9.258;2024-02-14T15:14:57;14.20;91.20
41756;DHT22;27435;48.480;9.258;2024-02-14T15:17:22;14.00;92.10
41756;DHT22;27435;48.480;9.258;2024-02-14T15:19:49;14.00;92.20
41756;DHT22;27435;48.480;9.258;2024-02-14T15:22:15;13.90;92.60
41756;DHT22;27435;48.480;9.258;2024-02-14T15:24:41;14.00;92.40
41756;DHT22;27435;48.480;9.258;2024-02-14T15:27:08;14.10;92.20
41756;DHT22;27435;48.480;9.258;2024-02-14T15:29:36;14.40;91.30
41756;DHT22;27435;48.480;9.258;2024-02-14T15:32:20;14.40;91.20
41756;DHT22;27435;48.480;9.258;2024-02-14T15:35:05;14.40;91.10
41756;DHT22;27435;48.480;9.258;2024-02-14T15:37:30;14.40;91.30